Capitol Logistics 1853

Operating for CJT



CYHM
John C. Munro Hamilton International Airport
Hamilton, CA
CYWG
Winnipeg / James Armstrong Richardson International Airport
Winnipeg, CA

Activity Log

Date Flight Route Aircraft Duration
04/24/2022 CPX1853 NUBER MUSIT BESEL Q922 VESRU VBI GOVIT NORAK4 B763 2h 27m

Route Details

Aircraft Information
Group: North America Fleet
Types: B738,B752,B762,B763
Route Data
Demand: V
Distance: 819nm
Duration: 2h 22m
Recm'd Route: NUBER MUSIT SSM YQT J500 VBI GOVIT NORAK2
Origin Wx: CYHM 270700Z 24011G17KT 15SM -RA FEW015 FEW040 SCT085 OVC120 18/16 A2978 RMK CF1SC1AC1AC5 SLP085 DENSITY ALT 1500FT
Dest. Wx: CYWG 270700Z 16002KT 15SM SKC 13/11 A2978 RMK SLP091 DENSITY ALT 900FT
Notes:

Financial History
Total Freight: 51,180lbs
Average Load: 51,180lbs/flt
Fuel Used: 21,422lbs
Avg. Fuel Used: 21,422lbs/flt
Fuel Expense: $12,211
Avg. Fuel Expense: $12,211
Avg. Fuel Cost: $0.57/lbs
Total Gross Income: $150,981
Pilot Pay: $79
Total Expenses: $18,464
Total Revenue: $120,127
Average Revenue: $150,981.00